Time;durP1;ratioP1;P1;durP2;ratioP2;P2;SDS_P1;SDS_P2;PMS_P1;PMS_P2;Temp;Humidity;BMP_temperature;BMP_pressure;BME280_temperature;BME280_humidity;BME280_pressure;Samples;Min_cycle;Max_cycle;Signal;HPM_P1;HPM_P2
2022/05/27 00:02:00;;;;;;;3.83;1.60;;;14.70;99.90;;;;;;5084328;28;20056;-64
2022/05/27 00:04:26;;;;;;;3.90;1.75;;;14.80;99.90;;;;;;5084769;28;20628;-63
2022/05/27 00:06:51;;;;;;;5.15;1.65;;;14.80;99.90;;;;;;5080237;28;20046;-63
2022/05/27 00:09:17;;;;;;;4.80;1.55;;;14.80;99.90;;;;;;5086728;28;20674;-64
2022/05/27 00:11:43;;;;;;;4.25;1.60;;;14.80;99.90;;;;;;5086741;28;20040;-64
2022/05/27 00:14:08;;;;;;;5.55;1.60;;;14.80;99.90;;;;;;5088991;28;20123;-64
2022/05/27 00:16:34;;;;;;;4.10;1.60;;;14.80;99.90;;;;;;5085040;28;20101;-64
2022/05/27 00:18:59;;;;;;;6.25;1.73;;;14.80;99.90;;;;;;5082782;28;20039;-63
2022/05/27 00:21:25;;;;;;;5.60;1.73;;;14.80;99.90;;;;;;5079926;28;20041;-64
2022/05/27 00:23:51;;;;;;;4.22;1.70;;;14.80;99.90;;;;;;5080354;28;20040;-63
2022/05/27 00:26:17;;;;;;;5.57;1.85;;;14.80;99.90;;;;;;5081948;28;20046;-64
2022/05/27 00:28:43;;;;;;;5.85;1.95;;;14.90;99.90;;;;;;5086525;28;20104;-63
2022/05/27 00:31:09;;;;;;;6.18;2.33;;;14.90;99.90;;;;;;5081040;28;20085;-65
2022/05/27 00:33:37;;;;;;;5.43;2.03;;;14.80;99.90;;;;;;5086132;28;20062;-63
2022/05/27 00:36:10;;;;;;;5.45;2.03;;;14.80;99.90;;;;;;5088090;28;20343;-63
2022/05/27 00:38:36;;;;;;;5.78;2.00;;;14.80;99.90;;;;;;5081278;28;20615;-62
2022/05/27 00:41:02;;;;;;;7.07;2.22;;;14.80;99.90;;;;;;5079051;28;20067;-66
2022/05/27 00:43:27;;;;;;;5.38;2.05;;;14.80;99.90;;;;;;5083731;28;20414;-63
2022/05/27 00:46:06;;;;;;;6.53;2.10;;;14.80;99.90;;;;;;5084500;28;20385;-63
2022/05/27 00:48:36;;;;;;;5.82;2.10;;;14.80;99.90;;;;;;5081928;28;20083;-64
2022/05/27 00:51:04;;;;;;;6.32;2.10;;;14.80;99.90;;;;;;5079199;28;20032;-66
2022/05/27 00:53:37;;;;;;;8.05;2.53;;;14.80;99.90;;;;;;5084585;28;20139;-63
2022/05/27 00:56:05;;;;;;;8.20;2.40;;;14.80;99.90;;;;;;5084288;28;20059;-65
2022/05/27 00:58:38;;;;;;;7.80;2.40;;;14.80;99.90;;;;;;5080354;28;20142;-62
2022/05/27 01:01:04;;;;;;;6.50;2.50;;;14.80;99.90;;;;;;5082365;28;20063;-64
2022/05/27 01:03:31;;;;;;;6.38;2.78;;;14.70;99.90;;;;;;5082430;28;20044;-63
2022/05/27 01:05:57;;;;;;;10.43;2.95;;;14.70;99.90;;;;;;5076430;28;20072;-63
2022/05/27 01:08:26;;;;;;;7.32;3.00;;;14.70;99.90;;;;;;5075831;28;20322;-62
2022/05/27 01:11:17;;;;;;;8.50;3.00;;;14.80;99.90;;;;;;5075511;28;20058;-63
2022/05/27 01:14:23;;;;;;;8.80;2.78;;;14.70;99.90;;;;;;5082682;28;20051;-63
2022/05/27 01:17:04;;;;;;;8.90;2.95;;;14.70;99.90;;;;;;5083255;28;20040;-63
2022/05/27 01:20:19;;;;;;;12.43;3.42;;;14.70;99.90;;;;;;5080904;28;20075;-64
2022/05/27 01:22:53;;;;;;;10.07;3.00;;;14.60;99.90;;;;;;5088841;28;20051;-65
2022/05/27 01:25:38;;;;;;;9.88;3.00;;;14.60;99.90;;;;;;5078753;28;20374;-65
2022/05/27 01:28:23;;;;;;;10.60;2.78;;;14.50;99.90;;;;;;5077670;28;20551;-63
2022/05/27 01:31:09;;;;;;;11.97;3.30;;;14.50;99.90;;;;;;5085637;28;20120;-63
2022/05/27 01:34:03;;;;;;;10.60;3.20;;;14.50;99.90;;;;;;5082134;28;20044;-64
2022/05/27 01:36:56;;;;;;;9.50;3.13;;;14.40;99.90;;;;;;5072540;28;20033;-63
2022/05/27 01:39:37;;;;;;;9.20;2.72;;;14.40;99.90;;;;;;5083311;28;20051;-64
2022/05/27 01:42:32;;;;;;;9.65;3.00;;;14.40;99.90;;;;;;5086309;28;20537;-66
2022/05/27 01:45:13;;;;;;;10.68;2.90;;;14.40;99.90;;;;;;5085842;28;20063;-64
2022/05/27 01:48:26;;;;;;;12.52;2.97;;;14.40;99.90;;;;;;5079325;28;20049;-65
2022/05/27 01:51:06;;;;;;;11.18;3.33;;;14.30;99.90;;;;;;5030265;28;20041;-64
2022/05/27 01:53:59;;;;;;;8.93;2.60;;;14.30;99.90;;;;;;5040285;28;20121;-64
2022/05/27 01:56:40;;;;;;;12.00;3.05;;;14.30;99.90;;;;;;5041006;28;20056;-64
2022/05/27 01:59:14;;;;;;;7.60;2.47;;;14.30;99.90;;;;;;5079211;28;20496;-64
2022/05/27 02:01:46;;;;;;;10.52;2.47;;;14.20;99.90;;;;;;5081832;28;20068;-64
2022/05/27 02:04:22;;;;;;;10.57;2.42;;;14.20;99.90;;;;;;5086118;28;20078;-63
2022/05/27 02:06:53;;;;;;;11.40;2.63;;;14.20;99.90;;;;;;5083658;28;20040;-63
2022/05/27 02:09:32;;;;;;;7.50;2.30;;;14.10;99.90;;;;;;5081515;28;20036;-64
2022/05/27 02:12:07;;;;;;;11.63;2.47;;;14.10;99.90;;;;;;5081821;28;20051;-63
2022/05/27 02:14:53;;;;;;;9.52;2.30;;;14.10;99.90;;;;;;5084940;28;20059;-63
2022/05/27 02:17:32;;;;;;;8.98;2.30;;;14.10;99.90;;;;;;5084402;28;20745;-63
2022/05/27 02:20:22;;;;;;;13.20;2.85;;;14.10;99.90;;;;;;5082639;28;20094;-63
2022/05/27 02:23:00;;;;;;;13.38;2.85;;;14.10;99.90;;;;;;5082917;28;20052;-64
2022/05/27 02:25:32;;;;;;;8.00;2.28;;;14.00;99.90;;;;;;5081446;28;20126;-63
2022/05/27 02:28:07;;;;;;;10.88;2.42;;;14.00;99.90;;;;;;5079914;28;20036;-64
2022/05/27 02:30:35;;;;;;;11.50;2.90;;;14.00;99.90;;;;;;5085260;28;20040;-63
2022/05/27 02:35:55;;;;;;;8.40;2.40;;;14.00;99.90;;;;;;5081253;28;20109;-63
2022/05/27 02:38:21;;;;;;;12.40;2.33;;;14.00;99.90;;;;;;5081993;28;20386;-64
2022/05/27 02:41:16;;;;;;;10.60;2.55;;;14.00;99.90;;;;;;5071909;28;20048;-65
2022/05/27 02:44:06;;;;;;;11.10;2.40;;;14.00;99.90;;;;;;5083350;28;20082;-63
2022/05/27 02:46:49;;;;;;;12.75;2.95;;;14.00;99.90;;;;;;5078508;28;20155;-63
2022/05/27 02:49:23;;;;;;;10.93;2.40;;;14.00;99.90;;;;;;5080754;28;20067;-63
2022/05/27 02:52:37;;;;;;;9.13;2.47;;;14.00;99.90;;;;;;5080058;28;20066;-64
2022/05/27 02:55:29;;;;;;;13.25;2.70;;;14.00;99.90;;;;;;5080204;28;20113;-65
2022/05/27 02:57:58;;;;;;;11.38;2.80;;;13.90;99.90;;;;;;5077694;28;20124;-64
2022/05/27 03:00:30;;;;;;;11.55;2.58;;;13.90;99.90;;;;;;5085136;28;20048;-64
2022/05/27 03:02:59;;;;;;;12.48;2.70;;;14.00;99.90;;;;;;5083015;28;20060;-63
2022/05/27 03:05:32;;;;;;;9.13;2.42;;;14.00;99.90;;;;;;5084573;28;20064;-64
2022/05/27 03:08:07;;;;;;;11.38;2.70;;;14.00;99.90;;;;;;5086641;28;20051;-64
2022/05/27 03:11:02;;;;;;;10.02;2.63;;;14.00;99.90;;;;;;5088874;28;20069;-63
2022/05/27 03:13:59;;;;;;;9.75;2.38;;;14.00;99.90;;;;;;5081850;28;20077;-63
2022/05/27 03:17:05;;;;;;;11.80;2.20;;;14.00;99.90;;;;;;5078127;28;20041;-63
2022/05/27 03:19:33;;;;;;;10.15;2.50;;;13.90;99.90;;;;;;5081865;28;20075;-63
2022/05/27 03:22:15;;;;;;;13.55;2.40;;;13.90;99.90;;;;;;5080408;28;20506;-63
2022/05/27 03:25:02;;;;;;;13.30;2.80;;;13.90;99.90;;;;;;5087649;28;20043;-63
2022/05/27 03:27:43;;;;;;;11.18;2.35;;;13.90;99.90;;;;;;5081753;28;20105;-63
2022/05/27 03:30:31;;;;;;;12.27;2.60;;;14.00;99.90;;;;;;5087375;28;20058;-63
2022/05/27 03:33:15;;;;;;;11.77;2.70;;;13.90;99.90;;;;;;5082569;28;20041;-62
2022/05/27 03:36:13;;;;;;;11.05;2.67;;;14.00;99.90;;;;;;5086033;28;20178;-63
2022/05/27 03:38:50;;;;;;;11.20;2.35;;;14.00;99.90;;;;;;5081646;28;20443;-63
2022/05/27 03:41:38;;;;;;;8.93;2.47;;;14.00;99.90;;;;;;5081285;28;20091;-63
2022/05/27 03:44:06;;;;;;;11.45;2.13;;;14.00;99.90;;;;;;5087954;28;20083;-63
2022/05/27 03:46:38;;;;;;;11.07;2.83;;;14.10;99.90;;;;;;5083003;28;20044;-63
2022/05/27 03:49:05;;;;;;;11.13;2.55;;;14.10;99.90;;;;;;5083740;28;20075;-63
2022/05/27 03:51:35;;;;;;;13.85;2.88;;;14.10;99.90;;;;;;5082012;28;20040;-64
2022/05/27 03:54:03;;;;;;;9.43;2.40;;;14.10;99.90;;;;;;5082877;28;20040;-63
2022/05/27 03:56:36;;;;;;;10.68;2.40;;;14.10;99.90;;;;;;5082376;28;20046;-65
2022/05/27 03:59:04;;;;;;;13.88;2.67;;;14.20;99.90;;;;;;5082121;28;20118;-63
2022/05/27 04:01:32;;;;;;;11.30;2.55;;;14.20;99.90;;;;;;5081792;28;20163;-63
2022/05/27 04:04:00;;;;;;;9.48;2.42;;;14.10;99.90;;;;;;5082427;28;20060;-63
2022/05/27 04:06:27;;;;;;;7.72;2.53;;;14.20;99.90;;;;;;5078665;28;20097;-63
2022/05/27 04:08:53;;;;;;;11.23;2.33;;;14.20;99.90;;;;;;5083694;28;20082;-63
2022/05/27 04:11:19;;;;;;;12.32;2.88;;;14.20;99.90;;;;;;5086896;28;20135;-63
2022/05/27 04:13:45;;;;;;;11.93;2.40;;;14.20;99.90;;;;;;5084103;28;20052;-63
2022/05/27 04:16:10;;;;;;;10.95;2.60;;;14.20;99.90;;;;;;5079701;28;20051;-63
2022/05/27 04:18:36;;;;;;;12.52;2.50;;;14.20;99.90;;;;;;5083706;28;20051;-64
2022/05/27 04:21:02;;;;;;;8.63;2.28;;;14.30;99.90;;;;;;5083379;28;20047;-64
2022/05/27 04:23:28;;;;;;;11.00;3.05;;;14.20;99.90;;;;;;5080988;28;20145;-64
2022/05/27 04:25:54;;;;;;;12.15;2.55;;;14.20;99.90;;;;;;5046662;28;20044;-63
2022/05/27 04:28:19;;;;;;;10.48;2.60;;;14.30;99.90;;;;;;5085648;28;20394;-64
2022/05/27 04:30:45;;;;;;;12.95;2.50;;;14.30;99.90;;;;;;5082013;28;20997;-63
2022/05/27 04:33:11;;;;;;;13.20;2.28;;;14.30;99.90;;;;;;5079084;28;20082;-63
2022/05/27 04:35:37;;;;;;;12.35;2.53;;;14.30;99.90;;;;;;5083758;28;20051;-63
2022/05/27 04:38:03;;;;;;;11.07;2.58;;;14.40;99.90;;;;;;5080834;28;20406;-65
2022/05/27 04:40:29;;;;;;;13.00;2.50;;;14.50;99.90;;;;;;5089950;28;20043;-63
2022/05/27 04:42:55;;;;;;;14.80;2.30;;;14.50;99.90;;;;;;5083663;28;20040;-63
2022/05/27 04:45:20;;;;;;;11.77;2.10;;;14.50;99.90;;;;;;5087439;28;20055;-63
2022/05/27 04:47:46;;;;;;;13.60;2.42;;;14.60;99.90;;;;;;5078988;28;20040;-63
2022/05/27 04:50:12;;;;;;;14.38;2.67;;;14.60;99.90;;;;;;5080069;28;20163;-64
2022/05/27 04:52:39;;;;;;;10.73;2.83;;;14.50;99.90;;;;;;5080056;28;20045;-64
2022/05/27 04:55:08;;;;;;;12.75;3.00;;;14.50;99.90;;;;;;5084004;28;20144;-63
2022/05/27 04:57:39;;;;;;;12.80;2.42;;;14.60;99.90;;;;;;5082220;28;20100;-63
2022/05/27 05:00:09;;;;;;;10.93;2.35;;;14.60;99.90;;;;;;5081029;28;20048;-64
2022/05/27 05:02:35;;;;;;;11.82;2.47;;;14.60;99.90;;;;;;5086829;28;20052;-63
2022/05/27 05:05:00;;;;;;;9.82;2.63;;;14.70;99.90;;;;;;5081984;28;20805;-64
2022/05/27 05:07:26;;;;;;;10.88;2.58;;;14.80;99.90;;;;;;5085205;28;20059;-63
2022/05/27 05:09:51;;;;;;;10.82;2.20;;;14.90;99.90;;;;;;5086763;28;20044;-63
2022/05/27 05:12:22;;;;;;;12.80;2.65;;;15.00;99.90;;;;;;5083011;28;20115;-63
2022/05/27 05:14:52;;;;;;;10.98;2.70;;;15.00;99.90;;;;;;5083226;28;20036;-63
2022/05/27 05:17:18;;;;;;;10.27;2.25;;;15.10;99.90;;;;;;5072535;28;20146;-63
2022/05/27 05:19:43;;;;;;;12.15;2.40;;;15.20;99.90;;;;;;5085733;28;20525;-63
2022/05/27 05:22:09;;;;;;;10.40;2.15;;;15.20;99.90;;;;;;5084956;28;20051;-64
2022/05/27 05:24:34;;;;;;;12.95;2.75;;;15.20;99.90;;;;;;5085853;28;20082;-63
2022/05/27 05:27:00;;;;;;;9.90;2.58;;;15.30;99.90;;;;;;5086474;28;20304;-64
2022/05/27 05:29:26;;;;;;;11.95;2.63;;;15.30;99.90;;;;;;5081297;28;20546;-63
2022/05/27 05:31:51;;;;;;;12.80;2.80;;;15.30;99.90;;;;;;5084837;28;20400;-62
2022/05/27 05:34:17;;;;;;;12.35;2.78;;;15.20;99.90;;;;;;5079935;28;20170;-62
2022/05/27 05:36:42;;;;;;;8.85;2.15;;;15.10;99.90;;;;;;5079218;28;20386;-63
2022/05/27 05:39:08;;;;;;;10.43;2.47;;;15.00;99.90;;;;;;5074726;28;20451;-63
2022/05/27 05:41:37;;;;;;;12.43;2.30;;;14.90;99.90;;;;;;5087081;28;20066;-65
2022/05/27 05:44:04;;;;;;;11.35;1.92;;;14.90;99.90;;;;;;5081708;28;20100;-64
2022/05/27 05:46:32;;;;;;;11.43;2.47;;;14.80;99.90;;;;;;5081973;28;20491;-62
2022/05/27 05:48:58;;;;;;;11.68;2.20;;;14.60;99.90;;;;;;5082903;28;20987;-63
2022/05/27 05:51:23;;;;;;;10.02;2.38;;;14.60;99.90;;;;;;5088020;28;20043;-63
2022/05/27 05:53:49;;;;;;;14.88;2.40;;;14.60;99.90;;;;;;5083270;28;20509;-62
2022/05/27 05:56:15;;;;;;;10.30;2.25;;;14.60;99.90;;;;;;5077484;28;20043;-62
2022/05/27 05:58:41;;;;;;;12.65;2.58;;;14.70;99.90;;;;;;5083373;28;20371;-62
2022/05/27 06:01:06;;;;;;;9.63;2.50;;;14.80;99.90;;;;;;5081472;28;20378;-63
2022/05/27 06:03:32;;;;;;;13.35;2.75;;;14.80;99.90;;;;;;5077567;28;20068;-63
2022/05/27 06:05:58;;;;;;;13.15;2.25;;;14.90;99.90;;;;;;5079931;28;20048;-63
2022/05/27 06:08:23;;;;;;;9.32;2.90;;;15.00;99.90;;;;;;5077310;28;20040;-62
2022/05/27 06:10:49;;;;;;;12.98;2.78;;;15.20;99.90;;;;;;5074483;28;21488;-63
2022/05/27 06:13:15;;;;;;;9.75;2.22;;;15.30;99.90;;;;;;5076975;28;20040;-63
2022/05/27 06:15:41;;;;;;;15.05;2.72;;;15.40;99.90;;;;;;5080154;28;20048;-62
2022/05/27 06:18:07;;;;;;;13.88;3.40;;;15.60;99.90;;;;;;5081882;28;20040;-62
2022/05/27 06:20:35;;;;;;;11.70;2.20;;;15.80;99.90;;;;;;5081597;28;20040;-64
2022/05/27 06:23:02;;;;;;;11.32;2.50;;;15.80;99.90;;;;;;5087051;28;20104;-64
2022/05/27 06:25:28;;;;;;;9.95;2.25;;;16.00;99.90;;;;;;5080777;28;20404;-64
2022/05/27 06:36:07;;;;;;;12.45;2.17;;;15.90;99.90;;;;;;5076992;28;20052;-62
2022/05/27 06:38:32;;;;;;;10.13;2.97;;;15.60;99.90;;;;;;5076562;28;20047;-63
2022/05/27 06:40:58;;;;;;;12.38;2.90;;;15.70;99.90;;;;;;5077792;28;20040;-63
2022/05/27 06:43:23;;;;;;;11.45;2.40;;;15.60;99.90;;;;;;5084892;28;20083;-62
2022/05/27 06:45:49;;;;;;;11.63;2.42;;;15.70;99.90;;;;;;5083723;28;20119;-63
2022/05/27 06:48:14;;;;;;;10.35;2.25;;;15.70;99.90;;;;;;5080722;28;20044;-63
2022/05/27 06:50:40;;;;;;;8.05;2.50;;;15.60;99.90;;;;;;5071646;28;20044;-66
2022/05/27 06:53:05;;;;;;;11.65;2.63;;;15.70;99.90;;;;;;5075246;28;20785;-63
2022/05/27 06:55:31;;;;;;;10.82;2.78;;;15.70;99.90;;;;;;5076430;28;20174;-63
2022/05/27 06:57:57;;;;;;;11.88;2.47;;;15.60;99.90;;;;;;5077558;28;20150;-64
2022/05/27 07:00:23;;;;;;;13.32;2.95;;;15.50;99.90;;;;;;5072987;28;20646;-64
2022/05/27 07:02:48;;;;;;;15.52;2.47;;;15.60;99.90;;;;;;5072916;28;20044;-63
2022/05/27 07:05:14;;;;;;;12.90;2.75;;;15.80;99.90;;;;;;5076058;28;20048;-62
2022/05/27 07:07:40;;;;;;;12.02;2.80;;;15.80;99.90;;;;;;5076103;28;20047;-65
2022/05/27 07:10:06;;;;;;;9.43;2.38;;;16.00;99.90;;;;;;5072217;28;20036;-63
2022/05/27 07:12:32;;;;;;;11.07;2.40;;;16.10;99.90;;;;;;5074067;28;20052;-64
2022/05/27 07:14:58;;;;;;;10.70;2.28;;;16.20;99.90;;;;;;5075331;28;20042;-63
2022/05/27 07:17:23;;;;;;;10.13;2.83;;;16.40;99.90;;;;;;5075241;28;20040;-64
2022/05/27 07:19:49;;;;;;;8.50;2.28;;;16.50;99.90;;;;;;5074682;28;20062;-65
2022/05/27 07:22:15;;;;;;;10.48;2.67;;;16.70;99.90;;;;;;5072843;28;20048;-66
2022/05/27 07:24:42;;;;;;;11.57;2.83;;;16.70;99.90;;;;;;5076905;28;20053;-64
2022/05/27 07:27:07;;;;;;;9.70;2.70;;;16.50;99.90;;;;;;5083227;28;20067;-64
2022/05/27 07:29:33;;;;;;;11.23;2.67;;;16.60;99.90;;;;;;5080636;28;20439;-64
2022/05/27 07:31:59;;;;;;;9.35;2.88;;;16.40;99.90;;;;;;5084222;28;20050;-64
2022/05/27 07:34:24;;;;;;;8.75;2.35;;;16.70;99.90;;;;;;5081644;28;20078;-63
2022/05/27 07:36:50;;;;;;;10.23;2.35;;;16.80;99.90;;;;;;5076126;28;20062;-63
2022/05/27 07:39:15;;;;;;;9.63;2.20;;;16.80;99.90;;;;;;5089856;28;20036;-63
2022/05/27 07:41:41;;;;;;;9.82;2.47;;;16.70;99.90;;;;;;5087815;28;20048;-64
2022/05/27 07:44:06;;;;;;;12.02;2.50;;;16.40;97.10;;;;;;5088199;28;20051;-65
2022/05/27 07:46:34;;;;;;;9.15;2.45;;;16.50;98.70;;;;;;5087245;28;20068;-65
2022/05/27 07:49:00;;;;;;;9.43;2.47;;;16.70;97.80;;;;;;5088127;28;20044;-63
2022/05/27 07:51:26;;;;;;;9.48;2.13;;;16.60;96.80;;;;;;5088152;28;20035;-63
2022/05/27 07:53:52;;;;;;;11.93;2.75;;;16.40;94.20;;;;;;5089987;28;20115;-62
2022/05/27 07:56:18;;;;;;;9.57;2.20;;;16.60;94.70;;;;;;5090800;28;20560;-64
2022/05/27 07:58:43;;;;;;;7.40;2.42;;;16.90;95.60;;;;;;5086377;28;20040;-63
2022/05/27 08:01:09;;;;;;;10.75;2.65;;;17.00;95.30;;;;;;5082300;28;20609;-63
2022/05/27 08:03:35;;;;;;;10.18;2.45;;;16.80;94.10;;;;;;5082374;28;20090;-62
2022/05/27 08:06:01;;;;;;;11.45;2.55;;;16.60;93.50;;;;;;5085259;28;20344;-63
2022/05/27 08:08:29;;;;;;;11.05;2.55;;;16.70;94.30;;;;;;5077084;28;20108;-62
2022/05/27 08:10:55;;;;;;;12.07;2.15;;;16.90;92.60;;;;;;5090957;28;20083;-65
2022/05/27 08:13:21;;;;;;;9.85;1.95;;;16.90;91.60;;;;;;5091523;28;20040;-63
2022/05/27 08:15:46;;;;;;;9.98;2.88;;;17.00;91.40;;;;;;5091927;28;20097;-63
2022/05/27 08:18:12;;;;;;;7.25;2.20;;;17.00;91.00;;;;;;5092311;28;20496;-63
2022/05/27 08:20:39;;;;;;;10.20;2.20;;;17.10;90.80;;;;;;5091544;28;20562;-64
2022/05/27 08:23:05;;;;;;;10.20;2.65;;;17.10;90.60;;;;;;5084569;28;20109;-64
2022/05/27 08:25:30;;;;;;;8.95;2.60;;;17.30;91.00;;;;;;5082728;28;20032;-65
2022/05/27 08:27:56;;;;;;;9.02;2.40;;;17.50;90.20;;;;;;5086277;28;20048;-65
2022/05/27 08:30:25;;;;;;;7.78;2.08;;;17.50;87.40;;;;;;5077335;28;20052;-64
2022/05/27 08:32:51;;;;;;;15.52;3.20;;;17.40;87.80;;;;;;5090522;28;20044;-66
2022/05/27 08:38:10;;;;;;;9.43;2.45;;;17.10;87.30;;;;;;5089633;28;20058;-67
2022/05/27 08:40:55;;;;;;;11.17;2.50;;;16.90;85.80;;;;;;5089972;28;20036;-65
2022/05/27 08:43:52;;;;;;;10.60;2.55;;;16.80;86.90;;;;;;5089083;28;20040;-65
2022/05/27 08:46:36;;;;;;;9.52;2.08;;;16.80;87.90;;;;;;5064974;28;20049;-66
2022/05/27 08:49:08;;;;;;;12.18;2.40;;;16.80;90.50;;;;;;5072951;28;20055;-67
2022/05/27 08:51:58;;;;;;;11.05;2.22;;;16.60;90.90;;;;;;5089418;28;20063;-63
2022/05/27 08:54:32;;;;;;;9.40;2.17;;;16.60;91.70;;;;;;5076507;28;20051;-63
2022/05/27 09:00:14;;;;;;;10.57;2.23;;;16.60;90.00;;;;;;5083776;28;20052;-63
2022/05/27 09:02:39;;;;;;;8.48;1.73;;;16.90;89.60;;;;;;5080949;28;20044;-63
2022/05/27 09:05:16;;;;;;;9.45;2.05;;;17.10;90.00;;;;;;5086604;28;20343;-64
2022/05/27 09:08:00;;;;;;;8.05;1.70;;;17.30;90.20;;;;;;5082175;28;20040;-65
2022/05/27 09:10:34;;;;;;;8.95;1.63;;;17.10;84.40;;;;;;5085256;28;20446;-64
2022/05/27 09:13:15;;;;;;;8.07;1.65;;;17.40;83.60;;;;;;5077346;28;20036;-63
2022/05/27 09:15:56;;;;;;;8.70;1.90;;;17.60;83.90;;;;;;5078138;28;20075;-63
2022/05/27 09:18:37;;;;;;;6.78;1.70;;;17.80;82.80;;;;;;5085960;28;20142;-65
2022/05/27 09:21:10;;;;;;;6.90;1.90;;;17.80;81.20;;;;;;5088174;28;20044;-66
2022/05/27 09:24:01;;;;;;;7.97;1.30;;;17.80;80.90;;;;;;5081368;28;20455;-65
2022/05/27 09:26:35;;;;;;;6.85;1.77;;;17.50;77.20;;;;;;5085656;28;20596;-63
2022/05/27 09:29:08;;;;;;;6.40;1.67;;;17.20;79.90;;;;;;5087510;28;20351;-63
2022/05/27 09:31:42;;;;;;;10.07;2.13;;;17.40;82.00;;;;;;5089316;28;20040;-65
2022/05/27 09:34:11;;;;;;;6.47;1.50;;;17.40;80.70;;;;;;5084675;28;20347;-63
2022/05/27 09:36:41;;;;;;;7.32;1.77;;;17.20;79.90;;;;;;5077917;28;20037;-65
2022/05/27 09:39:11;;;;;;;9.63;1.83;;;17.20;81.00;;;;;;5088181;28;20117;-65
2022/05/27 09:41:58;;;;;;;6.65;1.67;;;17.20;81.20;;;;;;5082713;28;20500;-65
2022/05/27 09:44:42;;;;;;;7.30;1.52;;;17.20;78.10;;;;;;5084599;28;20381;-65
2022/05/27 09:47:08;;;;;;;6.30;1.38;;;17.30;76.50;;;;;;5072253;28;20084;-64
2022/05/27 09:49:34;;;;;;;8.65;1.83;;;17.40;75.30;;;;;;5069522;28;20523;-65
2022/05/27 09:52:01;;;;;;;7.95;1.60;;;17.50;76.40;;;;;;5077667;28;20209;-64
2022/05/27 09:54:55;;;;;;;7.82;1.63;;;17.80;75.50;;;;;;5086541;28;20052;-65
2022/05/27 10:01:17;;;;;;;8.63;1.90;;;17.90;71.70;;;;;;5068321;28;20502;-64
2022/05/27 10:03:43;;;;;;;7.03;1.77;;;17.90;73.10;;;;;;5083247;28;20036;-64
2022/05/27 10:07:05;;;;;;;6.82;1.83;;;17.70;71.60;;;;;;5080089;28;20047;-63
2022/05/27 10:09:34;;;;;;;6.97;1.95;;;17.80;70.00;;;;;;5081955;28;20438;-65
2022/05/27 10:12:00;;;;;;;7.25;1.92;;;17.80;72.60;;;;;;5050366;22;20111;-88
2022/05/27 10:14:28;;;;;;;7.85;1.63;;;17.80;71.80;;;;;;5028820;28;20048;-86
2022/05/27 10:17:10;;;;;;;8.23;1.63;;;17.80;72.50;;;;;;5031589;28;20463;-86
2022/05/27 10:19:40;;;;;;;11.45;1.98;;;17.80;70.40;;;;;;5025738;28;20045;-88
2022/05/27 10:22:09;;;;;;;9.13;1.77;;;17.60;72.00;;;;;;5024352;28;20034;-86
2022/05/27 10:24:44;;;;;;;6.72;1.45;;;17.90;73.20;;;;;;5020780;28;20077;-86
2022/05/27 10:27:20;;;;;;;6.00;1.80;;;18.00;70.40;;;;;;5005201;28;20461;-87
2022/05/27 10:30:06;;;;;;;10.52;2.20;;;18.10;72.00;;;;;;5030466;28;20069;-87
2022/05/27 10:32:42;;;;;;;9.20;2.00;;;18.10;72.60;;;;;;5025199;28;20049;-85
2022/05/27 10:35:29;;;;;;;9.38;2.20;;;17.90;73.00;;;;;;5032615;28;20072;-85
2022/05/27 10:38:10;;;;;;;11.30;2.10;;;18.00;71.30;;;;;;5032011;28;20057;-88
2022/05/27 10:40:49;;;;;;;9.63;2.25;;;18.10;73.30;;;;;;5041684;28;20046;-88
2022/05/27 10:43:39;;;;;;;9.75;1.80;;;18.10;73.40;;;;;;5030876;28;20053;-87
2022/05/27 10:46:08;;;;;;;9.73;2.20;;;17.90;74.80;;;;;;5029038;28;20363;-89
2022/05/27 10:48:36;;;;;;;9.77;1.92;;;17.90;73.10;;;;;;5028605;28;20111;-86
2022/05/27 10:51:21;;;;;;;8.70;1.95;;;18.20;73.60;;;;;;5033645;28;20045;-85
2022/05/27 10:53:56;;;;;;;9.20;2.10;;;18.20;74.90;;;;;;5019363;28;20050;-89
2022/05/27 10:56:43;;;;;;;8.00;2.00;;;18.20;74.70;;;;;;5008281;28;20053;-87
2022/05/27 11:02:57;;;;;;;7.70;1.58;;;18.40;70.80;;;;;;5009066;28;20461;-85
2022/05/27 11:05:38;;;;;;;8.57;1.95;;;18.90;72.30;;;;;;5008628;28;20108;-88
2022/05/27 11:08:24;;;;;;;7.47;1.80;;;19.00;70.10;;;;;;5009228;28;20049;-87
2022/05/27 11:11:35;;;;;;;8.93;2.38;;;18.80;70.40;;;;;;5007766;28;20462;-88
2022/05/27 11:17:19;;;;;;;8.18;2.38;;;18.30;74.40;;;;;;5009159;28;20049;-88
2022/05/27 11:20:10;;;;;;;9.25;2.00;;;17.90;74.80;;;;;;5010587;28;20169;-86
2022/05/27 11:23:07;;;;;;;8.30;2.22;;;17.90;79.20;;;;;;5010397;28;20038;-87
2022/05/27 11:26:03;;;;;;;11.02;2.30;;;17.70;77.50;;;;;;5009009;28;20501;-87
2022/05/27 11:28:36;;;;;;;;;;;17.60;77.30;;;;;;5010899;28;20033;-87
2022/05/27 11:31:11;;;;;;;10.02;2.25;;;17.60;75.20;;;;;;5016896;28;19929;-86
2022/05/27 11:33:59;;;;;;;8.23;2.15;;;17.90;77.00;;;;;;5016674;28;20085;-88
2022/05/27 11:36:50;;;;;;;11.18;2.40;;;17.90;77.60;;;;;;5015001;28;20532;-91
2022/05/27 11:39:33;;;;;;;9.15;1.80;;;18.20;76.30;;;;;;5012045;28;20081;-87
2022/05/27 11:42:29;;;;;;;9.07;2.10;;;18.40;73.20;;;;;;5013066;28;20440;-89
2022/05/27 11:45:14;;;;;;;10.93;2.40;;;18.40;74.70;;;;;;5014695;28;20385;-88
2022/05/27 11:47:59;;;;;;;13.70;2.70;;;18.70;74.70;;;;;;5014840;28;20046;-88
2022/05/27 11:50:40;;;;;;;11.15;2.42;;;18.90;75.40;;;;;;5016582;28;20124;-88
2022/05/27 11:53:27;;;;;;;9.98;2.28;;;19.00;73.50;;;;;;4998919;28;20118;-88
2022/05/27 11:56:17;;;;;;;10.18;2.47;;;19.10;72.30;;;;;;5015223;28;20045;-89
2022/05/27 11:59:08;;;;;;;10.48;2.50;;;19.10;72.90;;;;;;5015488;28;20061;-85
2022/05/27 12:01:43;;;;;;;12.68;2.95;;;19.30;72.70;;;;;;5015266;28;20476;-86
2022/05/27 12:04:32;;;;;;;8.55;2.00;;;19.40;72.80;;;;;;5006512;28;20131;-88
2022/05/27 12:07:33;;;;;;;11.85;2.55;;;19.40;68.50;;;;;;4997961;28;20125;-86
2022/05/27 12:10:47;;;;;;;11.00;2.50;;;19.50;67.40;;;;;;5074697;27;20830;-62
2022/05/27 12:13:38;;;;;;;9.98;2.40;;;19.80;68.90;;;;;;5080533;28;20523;-64
2022/05/27 12:16:09;;;;;;;9.90;2.40;;;20.00;66.40;;;;;;5073044;28;20047;-63
2022/05/27 12:18:44;;;;;;;8.75;2.13;;;19.60;66.50;;;;;;5084546;28;20071;-63
2022/05/27 12:21:11;;;;;;;;;;;19.50;67.40;;;;;;5076809;28;20059;-62
2022/05/27 12:23:42;;;;;;;9.57;2.10;;;19.30;69.60;;;;;;5071559;28;19920;-63
2022/05/27 12:26:08;;;;;;;10.40;2.35;;;19.00;71.20;;;;;;5081098;28;20127;-62
2022/05/27 12:28:39;;;;;;;9.98;2.25;;;18.60;70.00;;;;;;5070785;28;20044;-62
2022/05/27 12:31:05;;;;;;;10.00;2.22;;;18.20;69.60;;;;;;5068120;28;20044;-62
2022/05/27 12:33:35;;;;;;;11.60;2.10;;;18.20;70.60;;;;;;5084383;28;20528;-61
2022/05/27 12:36:04;;;;;;;10.70;2.30;;;18.20;72.00;;;;;;5087429;28;20381;-62
2022/05/27 12:38:34;;;;;;;10.98;2.33;;;18.50;72.70;;;;;;5083120;28;20190;-62
2022/05/27 12:41:07;;;;;;;8.15;2.00;;;18.60;72.40;;;;;;5087636;28;20041;-62
2022/05/27 12:43:37;;;;;;;9.48;1.77;;;18.80;71.50;;;;;;5069045;28;20048;-62
2022/05/27 12:46:03;;;;;;;7.05;1.83;;;19.00;70.20;;;;;;5087631;28;20055;-62
2022/05/27 12:48:38;;;;;;;7.18;2.00;;;19.20;70.00;;;;;;5086269;28;20040;-62
2022/05/27 12:51:28;;;;;;;11.15;1.73;;;19.30;67.20;;;;;;5086589;28;20134;-62
2022/05/27 12:53:58;;;;;;;8.75;1.70;;;18.80;68.10;;;;;;5067563;28;20053;-62
2022/05/27 13:02:22;;;;;;;8.25;1.90;;;18.30;70.20;;;;;;5067066;28;20056;-63
2022/05/27 13:05:00;;;;;;;8.88;2.00;;;18.20;71.40;;;;;;5072761;28;20040;-62
2022/05/27 13:07:35;;;;;;;10.30;2.15;;;18.20;69.90;;;;;;5070706;28;20086;-62
2022/05/27 13:10:16;;;;;;;12.27;2.30;;;18.40;72.10;;;;;;5083633;28;20359;-62
2022/05/27 13:12:44;;;;;;;11.00;2.30;;;18.70;69.10;;;;;;5081271;28;20036;-63
2022/05/27 13:15:43;;;;;;;9.55;2.00;;;18.20;69.60;;;;;;5065241;28;20049;-63
2022/05/27 13:18:26;;;;;;;10.68;2.75;;;18.20;72.10;;;;;;5066718;28;20041;-62
2022/05/27 13:21:04;;;;;;;13.23;2.65;;;18.30;73.20;;;;;;5069494;28;20064;-62
2022/05/27 13:23:31;;;;;;;10.70;2.17;;;18.10;71.70;;;;;;5062007;28;20045;-62
2022/05/27 13:26:18;;;;;;;9.45;2.17;;;18.00;72.20;;;;;;5067565;28;20043;-62
2022/05/27 13:28:57;;;;;;;13.35;2.40;;;17.90;73.10;;;;;;5071493;28;20369;-62
2022/05/27 13:31:44;;;;;;;12.18;2.35;;;17.90;75.70;;;;;;5064632;28;20052;-62
2022/05/27 13:34:20;;;;;;;11.82;2.67;;;17.70;76.90;;;;;;5054836;28;20452;-62
2022/05/27 13:36:54;;;;;;;10.93;2.35;;;17.60;77.20;;;;;;5056714;28;20049;-62
2022/05/27 13:39:24;;;;;;;13.40;2.65;;;17.40;78.10;;;;;;5058180;28;20049;-62
2022/05/27 13:41:52;;;;;;;15.02;2.08;;;17.30;80.20;;;;;;5064147;28;20044;-62
2022/05/27 13:44:21;;;;;;;10.75;2.20;;;17.10;81.20;;;;;;5055490;28;20073;-62
2022/05/27 13:46:54;;;;;;;10.43;2.20;;;16.80;82.10;;;;;;5053441;28;20029;-63
2022/05/27 13:49:27;;;;;;;13.57;2.42;;;16.70;83.00;;;;;;5055113;28;20091;-64
2022/05/27 13:51:52;;;;;;;12.57;2.13;;;17.00;83.30;;;;;;5058764;28;20068;-63